createdAt,value
2019-02-28T00:01:34.485Z,98.70
2019-02-28T00:04:06.079Z,98.60
2019-02-28T00:06:36.384Z,98.80
2019-02-28T00:09:09.574Z,98.70
2019-02-28T00:11:41.218Z,98.50
2019-02-28T00:14:11.369Z,98.50
2019-02-28T00:16:41.614Z,98.30
2019-02-28T00:19:12.010Z,98.20
2019-02-28T00:21:42.300Z,98.20
2019-02-28T00:24:12.664Z,98.20
2019-02-28T00:26:46.308Z,98.40
2019-02-28T00:29:14.759Z,98.10
2019-02-28T00:31:49.460Z,98.10
2019-02-28T00:34:17.076Z,98.10
2019-02-28T00:36:47.268Z,97.90
2019-02-28T00:39:17.517Z,98.00
2019-02-28T00:41:47.699Z,98.10
2019-02-28T00:44:17.815Z,98.10
2019-02-28T00:46:48.072Z,98.10
2019-02-28T00:49:18.286Z,98.10
2019-02-28T00:51:49.665Z,98.10
2019-02-28T00:54:19.910Z,98.20
2019-02-28T00:56:52.537Z,98.10
2019-02-28T00:59:21.990Z,98.10
2019-02-28T01:01:52.112Z,97.90
2019-02-28T01:04:22.417Z,98.00
2019-02-28T01:06:52.640Z,98.00
2019-02-28T01:09:22.963Z,97.90
2019-02-28T01:11:53.028Z,97.90
2019-02-28T01:14:25.166Z,97.90
2019-02-28T01:16:55.347Z,97.90
2019-02-28T01:19:26.528Z,97.70
2019-02-28T01:21:56.904Z,97.60
2019-02-28T01:24:27.090Z,97.40
2019-02-28T01:26:57.127Z,97.30
2019-02-28T01:29:27.599Z,97.30
2019-02-28T01:31:57.919Z,97.40
2019-02-28T01:34:29.125Z,97.40
2019-02-28T01:36:59.960Z,97.30
2019-02-28T01:39:30.788Z,97.40
2019-02-28T01:42:01.129Z,97.50
2019-02-28T01:44:35.600Z,97.40
2019-02-28T01:47:03.057Z,97.40
2019-02-28T01:49:33.179Z,97.40
2019-02-28T01:52:03.542Z,97.20
2019-02-28T01:54:33.743Z,97.00
2019-02-28T01:57:05.078Z,97.00
2019-02-28T01:59:35.155Z,96.90
2019-02-28T02:02:06.656Z,96.90
2019-02-28T02:04:37.164Z,96.60
2019-02-28T02:07:07.347Z,96.60
2019-02-28T02:09:38.629Z,96.70
2019-02-28T02:12:08.878Z,96.70
2019-02-28T02:14:39.026Z,96.90
2019-02-28T02:17:09.373Z,96.90
2019-02-28T02:19:39.409Z,97.00
2019-02-28T02:22:10.215Z,97.00
2019-02-28T02:24:40.406Z,97.00
2019-02-28T02:27:10.563Z,97.10
2019-02-28T02:29:40.816Z,97.20
2019-02-28T02:32:12.037Z,97.20
2019-02-28T02:34:42.256Z,97.20
2019-02-28T02:37:12.460Z,97.20
2019-02-28T02:39:42.578Z,97.10
2019-02-28T02:42:13.106Z,97.20
2019-02-28T02:44:43.157Z,97.30
2019-02-28T02:47:14.378Z,97.30
2019-02-28T02:49:44.937Z,97.10
2019-02-28T02:52:15.119Z,97.10
2019-02-28T02:54:46.439Z,97.10
2019-02-28T02:57:16.690Z,96.80
2019-02-28T02:59:46.917Z,96.80
2019-02-28T03:02:16.982Z,96.80
2019-02-28T03:04:47.120Z,96.80
2019-02-28T03:07:23.034Z,96.70
2019-02-28T03:09:48.886Z,96.70
2019-02-28T03:12:19.087Z,96.70
2019-02-28T03:14:50.022Z,96.70
2019-02-28T03:17:20.262Z,96.70
2019-02-28T03:19:50.402Z,96.70
2019-02-28T03:22:28.324Z,96.70
2019-02-28T03:24:52.436Z,96.80
2019-02-28T03:27:23.652Z,97.00
2019-02-28T03:29:53.734Z,96.70
2019-02-28T03:32:23.862Z,96.70
2019-02-28T03:34:57.781Z,96.60
2019-02-28T03:37:32.793Z,96.60
2019-02-28T03:40:02.415Z,96.60
2019-02-28T03:42:30.690Z,96.50
2019-02-28T03:45:00.913Z,96.40
2019-02-28T03:47:32.260Z,96.30
2019-02-28T03:50:02.523Z,96.10
2019-02-28T03:52:32.780Z,96.10
2019-02-28T03:55:04.572Z,96.10
2019-02-28T03:57:39.941Z,95.90
2019-02-28T04:00:13.758Z,95.70
2019-02-28T04:02:43.890Z,95.80
2019-02-28T04:05:14.171Z,95.90
2019-02-28T04:07:44.519Z,95.40
2019-02-28T04:10:20.547Z,95.50
2019-02-28T04:12:49.555Z,95.40
2019-02-28T04:15:19.752Z,95.20
2019-02-28T04:17:49.911Z,95.10
2019-02-28T04:20:21.213Z,95.10
2019-02-28T04:22:55.254Z,95.10
2019-02-28T04:25:24.386Z,95.00
2019-02-28T04:27:54.766Z,95.00
2019-02-28T04:30:24.972Z,94.90
2019-02-28T04:33:01.067Z,94.70
2019-02-28T04:35:28.114Z,94.70
2019-02-28T04:37:58.155Z,94.60
2019-02-28T04:40:29.511Z,94.70
2019-02-28T04:42:59.824Z,94.60
2019-02-28T04:45:30.058Z,94.60
2019-02-28T04:48:00.275Z,94.60
2019-02-28T04:50:32.069Z,94.50
2019-02-28T04:53:02.595Z,94.30
2019-02-28T04:55:34.233Z,94.30
2019-02-28T04:58:04.751Z,94.10
2019-02-28T05:00:37.786Z,93.90
2019-02-28T05:03:06.795Z,93.80
2019-02-28T05:05:36.939Z,93.60
2019-02-28T05:08:07.118Z,93.70
2019-02-28T05:10:38.495Z,93.60
2019-02-28T05:13:11.402Z,93.50
2019-02-28T05:15:41.193Z,93.40
2019-02-28T05:18:11.627Z,93.30
2019-02-28T05:20:45.193Z,93.20
2019-02-28T05:23:13.697Z,93.20
2019-02-28T05:25:43.836Z,93.10
2019-02-28T05:28:13.991Z,93.10
2019-02-28T05:30:44.266Z,93.00
2019-02-28T05:33:14.616Z,92.90
2019-02-28T05:35:57.214Z,92.70
2019-02-28T05:38:28.541Z,92.80
2019-02-28T05:40:58.803Z,92.70
2019-02-28T05:43:29.317Z,92.70
2019-02-28T05:46:00.937Z,92.60
2019-02-28T05:48:31.219Z,92.70
2019-02-28T05:51:01.416Z,92.60
2019-02-28T05:53:31.718Z,92.60
2019-02-28T05:56:01.895Z,92.30
2019-02-28T05:58:32.137Z,92.30
2019-02-28T06:01:02.299Z,92.30
2019-02-28T06:03:32.718Z,92.10
2019-02-28T06:06:02.916Z,92.00
2019-02-28T06:08:35.495Z,91.70
2019-02-28T06:11:06.385Z,91.90
2019-02-28T06:13:37.122Z,91.70
2019-02-28T06:16:11.284Z,91.90
2019-02-28T06:18:39.739Z,91.90
2019-02-28T06:21:10.417Z,91.90
2019-02-28T06:23:41.671Z,91.60
2019-02-28T06:26:11.912Z,91.60
2019-02-28T06:28:43.328Z,91.70
2019-02-28T06:31:14.360Z,91.60
2019-02-28T06:33:45.628Z,91.60
2019-02-28T06:36:15.947Z,91.50
2019-02-28T06:38:46.035Z,91.40
2019-02-28T06:41:16.258Z,91.40
2019-02-28T06:43:46.438Z,91.10
2019-02-28T06:46:18.304Z,91.20
2019-02-28T06:48:49.077Z,90.90
2019-02-28T06:51:20.288Z,91.00
2019-02-28T06:53:50.432Z,90.60
2019-02-28T06:56:22.629Z,90.70
2019-02-28T06:58:53.406Z,90.50
2019-02-28T07:01:23.919Z,90.30
2019-02-28T07:03:54.089Z,90.60
2019-02-28T07:06:24.493Z,90.40
2019-02-28T07:08:54.712Z,90.30
2019-02-28T07:11:24.873Z,90.30
2019-02-28T07:13:55.030Z,90.10
2019-02-28T07:16:25.313Z,89.70
2019-02-28T07:18:55.576Z,89.30
2019-02-28T07:21:25.799Z,88.90
2019-02-28T07:23:56.256Z,88.30
2019-02-28T07:26:26.420Z,87.30
2019-02-28T07:28:56.608Z,87.60
2019-02-28T07:31:26.783Z,87.70
2019-02-28T07:33:57.002Z,88.00
2019-02-28T07:36:27.073Z,87.60
2019-02-28T07:38:57.832Z,87.50
2019-02-28T07:41:28.223Z,87.20
2019-02-28T07:43:59.063Z,86.70
2019-02-28T07:46:29.447Z,86.40
2019-02-28T07:49:00.875Z,85.70
2019-02-28T07:51:31.574Z,86.10
2019-02-28T07:54:01.728Z,86.30
2019-02-28T07:56:31.891Z,87.00
2019-02-28T07:59:05.245Z,85.40
2019-02-28T08:01:34.002Z,86.20
2019-02-28T08:04:04.165Z,85.20
2019-02-28T08:06:36.261Z,85.60
2019-02-28T08:09:18.229Z,85.40
2019-02-28T08:11:51.654Z,86.10
2019-02-28T08:14:20.282Z,86.10
2019-02-28T08:16:51.392Z,85.60
2019-02-28T08:19:22.840Z,86.00
2019-02-28T08:21:53.401Z,85.90
2019-02-28T08:24:23.647Z,86.00
2019-02-28T08:26:54.292Z,86.40
2019-02-28T08:29:24.565Z,85.60
2019-02-28T08:31:54.848Z,85.60
2019-02-28T08:34:26.202Z,85.70
2019-02-28T08:36:56.483Z,85.80
2019-02-28T08:39:26.699Z,86.00
2019-02-28T08:42:03.004Z,85.70
2019-02-28T08:44:29.014Z,85.20
2019-02-28T08:46:59.136Z,85.40
2019-02-28T08:49:29.447Z,85.60
2019-02-28T08:52:02.469Z,85.20
2019-02-28T08:54:32.656Z,85.10
2019-02-28T08:57:02.906Z,85.10
2019-02-28T08:59:33.183Z,84.60
2019-02-28T09:02:03.557Z,84.50
2019-02-28T09:04:41.002Z,84.00
2019-02-28T09:07:05.810Z,84.50
2019-02-28T09:09:36.067Z,84.40
2019-02-28T09:12:06.304Z,84.10
2019-02-28T09:14:36.588Z,84.00
2019-02-28T09:17:06.834Z,83.90
2019-02-28T09:19:37.015Z,84.00
2019-02-28T09:22:07.300Z,84.00
2019-02-28T09:24:37.528Z,83.90
2019-02-28T09:27:07.756Z,84.30
2019-02-28T09:29:38.004Z,84.00
2019-02-28T09:32:10.293Z,83.90
2019-02-28T09:34:41.289Z,85.30
2019-02-28T09:37:11.590Z,84.40
2019-02-28T09:39:41.829Z,83.90
2019-02-28T09:42:14.797Z,83.30
2019-02-28T09:44:43.933Z,82.50
2019-02-28T09:47:14.237Z,82.80
2019-02-28T09:49:47.167Z,83.00
2019-02-28T09:52:16.356Z,82.50
2019-02-28T09:54:46.552Z,81.60
2019-02-28T09:57:19.002Z,80.90
2019-02-28T09:59:50.223Z,79.50
2019-02-28T10:02:20.354Z,79.30
2019-02-28T10:04:50.548Z,78.40
2019-02-28T10:07:39.883Z,77.90
2019-02-28T10:10:20.314Z,78.30
2019-02-28T10:12:47.135Z,78.80
2019-02-28T10:15:19.003Z,77.60
2019-02-28T10:17:49.318Z,78.40
2019-02-28T10:20:26.317Z,77.70
2019-02-28T10:22:53.895Z,77.50
2019-02-28T10:25:25.232Z,78.10
2019-02-28T10:28:01.652Z,77.80
2019-02-28T10:30:31.845Z,77.00
2019-02-28T10:32:59.577Z,77.80
2019-02-28T10:35:29.741Z,77.20
2019-02-28T10:37:59.952Z,77.00
2019-02-28T10:40:30.347Z,76.00
2019-02-28T10:43:00.633Z,76.00
2019-02-28T10:45:31.054Z,75.10
2019-02-28T10:48:03.877Z,74.00
2019-02-28T10:50:34.239Z,74.30
2019-02-28T10:53:06.107Z,72.90
2019-02-28T10:55:36.771Z,72.30
2019-02-28T10:58:07.274Z,72.00
2019-02-28T11:00:40.473Z,71.60
2019-02-28T11:03:10.952Z,70.60
2019-02-28T11:05:41.767Z,68.80
2019-02-28T11:08:16.691Z,66.70
2019-02-28T11:10:46.570Z,65.60
2019-02-28T11:13:18.495Z,63.10
2019-02-28T11:15:49.450Z,60.60
2019-02-28T11:18:19.919Z,59.30
2019-02-28T11:20:50.198Z,58.40
2019-02-28T11:23:21.298Z,57.20
2019-02-28T11:25:53.055Z,57.70
2019-02-28T11:28:27.724Z,56.80
2019-02-28T11:30:55.323Z,56.30
2019-02-28T11:33:25.702Z,55.30
2019-02-28T11:35:59.119Z,55.30
2019-02-28T11:38:27.779Z,55.10
2019-02-28T11:40:58.121Z,54.00
2019-02-28T11:43:30.486Z,52.00
2019-02-28T11:46:02.973Z,50.90
2019-02-28T11:48:34.805Z,50.00
2019-02-28T11:51:05.403Z,49.30
2019-02-28T11:53:39.259Z,48.80
2019-02-28T11:56:08.167Z,48.70
2019-02-28T11:58:39.120Z,48.20
2019-02-28T12:01:10.513Z,47.80
2019-02-28T12:03:41.625Z,47.40
2019-02-28T12:06:11.825Z,47.20
2019-02-28T12:08:45.095Z,45.70
2019-02-28T12:11:14.030Z,45.20
2019-02-28T12:13:44.308Z,44.90
2019-02-28T12:16:16.222Z,43.50
2019-02-28T12:18:46.437Z,43.00
2019-02-28T12:21:16.740Z,42.30
2019-02-28T12:23:47.071Z,41.30
2019-02-28T12:26:17.775Z,39.90
2019-02-28T12:28:48.777Z,39.40
2019-02-28T12:31:18.943Z,39.00
2019-02-28T12:33:49.225Z,39.10
2019-02-28T12:36:19.363Z,37.30
2019-02-28T12:38:49.642Z,37.30
2019-02-28T12:41:21.681Z,37.00
2019-02-28T12:43:51.558Z,36.70
2019-02-28T12:46:24.884Z,36.70
2019-02-28T12:48:55.163Z,36.40
2019-02-28T12:51:25.377Z,35.70
2019-02-28T12:53:56.283Z,36.00
2019-02-28T12:56:27.543Z,36.10
2019-02-28T12:58:57.764Z,36.60
2019-02-28T13:01:27.836Z,36.50
2019-02-28T13:04:00.637Z,36.60
2019-02-28T13:06:29.898Z,36.90
2019-02-28T13:09:00.070Z,38.50
2019-02-28T13:11:30.088Z,40.50
2019-02-28T13:14:02.920Z,42.70
2019-02-28T13:16:32.056Z,44.30
2019-02-28T13:19:02.340Z,46.40
2019-02-28T13:21:32.520Z,48.00
2019-02-28T13:24:05.955Z,48.90
2019-02-28T13:26:34.884Z,50.00
2019-02-28T13:29:05.481Z,51.40
2019-02-28T13:31:35.777Z,52.60
2019-02-28T13:34:06.044Z,53.90
2019-02-28T13:36:36.269Z,55.30
2019-02-28T13:39:08.920Z,55.70
2019-02-28T13:41:39.296Z,56.50
2019-02-28T13:44:09.396Z,56.90
2019-02-28T13:46:39.676Z,57.30
2019-02-28T13:49:12.092Z,57.90
2019-02-28T13:51:42.648Z,58.90
2019-02-28T13:54:13.050Z,58.90
2019-02-28T13:56:44.520Z,58.40
2019-02-28T13:59:14.738Z,56.60
2019-02-28T14:01:45.061Z,55.50
2019-02-28T14:04:19.386Z,54.60
2019-02-28T14:06:48.033Z,54.00
2019-02-28T14:09:18.929Z,54.30
2019-02-28T14:11:51.857Z,54.20
2019-02-28T14:14:22.374Z,54.30
2019-02-28T14:16:52.530Z,54.50
2019-02-28T14:19:22.591Z,55.20
2019-02-28T14:21:53.846Z,56.70
2019-02-28T14:24:24.046Z,57.90
2019-02-28T14:26:54.208Z,58.80
2019-02-28T14:29:24.344Z,57.90
2019-02-28T14:31:54.556Z,56.90
2019-02-28T14:34:26.035Z,56.80
2019-02-28T14:36:56.783Z,57.70
2019-02-28T14:39:27.170Z,58.60
2019-02-28T14:41:57.268Z,59.60
2019-02-28T14:44:28.056Z,59.90
2019-02-28T14:46:59.237Z,60.70
2019-02-28T14:49:29.428Z,61.60
2019-02-28T14:52:00.338Z,62.20
2019-02-28T14:54:31.549Z,62.00
2019-02-28T14:57:01.597Z,62.10
2019-02-28T14:59:32.019Z,61.30
2019-02-28T15:02:02.176Z,61.60
2019-02-28T15:04:32.296Z,61.60
2019-02-28T15:07:04.251Z,60.40
2019-02-28T15:09:34.563Z,60.40
2019-02-28T15:12:04.853Z,60.80
2019-02-28T15:14:36.522Z,61.70
2019-02-28T15:17:07.590Z,62.00
2019-02-28T15:19:38.021Z,62.90
2019-02-28T15:22:08.207Z,63.60
2019-02-28T15:24:40.544Z,64.00
2019-02-28T15:27:10.525Z,64.90
2019-02-28T15:29:40.677Z,65.30
2019-02-28T15:32:10.774Z,66.00
2019-02-28T15:34:41.998Z,66.70
2019-02-28T15:37:12.339Z,67.50
2019-02-28T15:39:42.932Z,68.60
2019-02-28T15:42:13.361Z,69.70
2019-02-28T15:44:43.915Z,70.70
2019-02-28T15:47:14.097Z,72.10
2019-02-28T15:49:44.332Z,73.20
2019-02-28T15:52:14.697Z,73.50
2019-02-28T15:54:44.895Z,74.30
2019-02-28T15:57:15.101Z,74.20
2019-02-28T15:59:46.660Z,75.10
2019-02-28T16:02:17.872Z,75.30
2019-02-28T16:04:48.054Z,76.00
2019-02-28T16:07:18.436Z,76.60
2019-02-28T16:09:48.686Z,77.00
2019-02-28T16:12:18.938Z,79.20
2019-02-28T16:14:49.225Z,79.10
2019-02-28T16:17:19.485Z,79.20
2019-02-28T16:19:49.804Z,79.30
2019-02-28T16:22:20.027Z,79.70
2019-02-28T16:24:50.263Z,79.50
2019-02-28T16:27:20.374Z,79.80
2019-02-28T16:29:52.337Z,80.20
2019-02-28T16:32:22.521Z,80.00
2019-02-28T16:34:52.854Z,80.30
2019-02-28T16:37:23.149Z,80.60
2019-02-28T16:39:53.388Z,81.00
2019-02-28T16:42:23.932Z,81.90
2019-02-28T16:44:54.063Z,81.90
2019-02-28T16:47:25.175Z,82.30
2019-02-28T16:49:56.504Z,82.40
2019-02-28T16:52:26.751Z,82.80
2019-02-28T16:54:57.074Z,83.10
2019-02-28T16:57:27.266Z,83.00
2019-02-28T16:59:57.474Z,83.00
2019-02-28T17:02:29.328Z,83.50
2019-02-28T17:04:59.746Z,83.70
2019-02-28T17:07:30.042Z,83.90
2019-02-28T17:10:01.683Z,84.00
2019-02-28T17:12:59.520Z,84.30
2019-02-28T17:15:38.120Z,84.60
2019-02-28T17:18:13.040Z,84.60
2019-02-28T17:20:43.533Z,84.80
2019-02-28T17:23:13.775Z,85.80
2019-02-28T17:25:43.789Z,86.00
2019-02-28T17:28:33.096Z,86.80
2019-02-28T17:31:22.354Z,87.80
2019-02-28T17:33:52.650Z,88.90
2019-02-28T17:36:22.920Z,90.20
2019-02-28T17:38:53.224Z,90.50
2019-02-28T17:41:23.363Z,90.90
2019-02-28T17:44:34.036Z,90.90
2019-02-28T17:47:05.920Z,90.90
2019-02-28T17:50:14.379Z,91.30
2019-02-28T17:52:53.546Z,91.20
2019-02-28T17:56:04.186Z,91.10
2019-02-28T17:59:04.391Z,91.10
2019-02-28T18:02:05.143Z,91.40
2019-02-28T18:05:03.911Z,91.40
2019-02-28T18:08:12.912Z,91.70
2019-02-28T18:11:07.957Z,91.80
2019-02-28T18:14:09.502Z,91.90
2019-02-28T18:17:12.095Z,92.00
2019-02-28T18:20:05.879Z,92.20
2019-02-28T18:23:01.015Z,91.80
2019-02-28T18:26:09.447Z,91.70
2019-02-28T18:29:04.706Z,91.80
2019-02-28T18:31:35.843Z,91.70
2019-02-28T18:34:12.622Z,91.90
2019-02-28T18:36:43.433Z,91.80
2019-02-28T18:39:14.640Z,91.90
2019-02-28T18:41:44.765Z,92.00
2019-02-28T18:44:14.912Z,92.50
2019-02-28T18:46:45.330Z,92.00
2019-02-28T18:49:15.694Z,92.10
2019-02-28T18:51:46.179Z,92.10
2019-02-28T18:54:16.362Z,92.00
2019-02-28T18:56:46.617Z,92.20
2019-02-28T18:59:16.922Z,92.20
2019-02-28T19:01:47.278Z,92.40
2019-02-28T19:04:17.468Z,92.40
2019-02-28T19:06:47.653Z,92.70
2019-02-28T19:09:25.180Z,92.70
2019-02-28T19:11:55.716Z,92.90
2019-02-28T19:14:26.238Z,92.90
2019-02-28T19:16:56.526Z,92.70
2019-02-28T19:19:27.036Z,92.30
2019-02-28T19:21:57.246Z,91.60
2019-02-28T19:24:27.561Z,91.20
2019-02-28T19:26:57.718Z,89.80
2019-02-28T19:29:28.028Z,87.60
2019-02-28T19:31:58.356Z,84.60
2019-02-28T19:34:28.607Z,82.70
2019-02-28T19:36:58.903Z,82.40
2019-02-28T19:39:29.207Z,81.50
2019-02-28T19:41:59.547Z,80.50
2019-02-28T19:44:30.351Z,79.60
2019-02-28T19:47:00.598Z,80.00
2019-02-28T19:49:30.820Z,79.50
2019-02-28T19:52:01.075Z,79.90
2019-02-28T19:54:31.433Z,80.50
2019-02-28T19:57:02.818Z,80.20
2019-02-28T19:59:33.097Z,79.10
2019-02-28T20:02:03.466Z,78.30
2019-02-28T20:04:35.949Z,77.50
2019-02-28T20:07:06.179Z,77.90
2019-02-28T20:09:37.660Z,78.30
2019-02-28T20:12:19.787Z,77.90
2019-02-28T20:14:50.027Z,77.60
2019-02-28T20:17:20.434Z,77.10
2019-02-28T20:19:50.716Z,76.90
2019-02-28T20:22:21.071Z,77.30
2019-02-28T20:24:51.379Z,76.70
2019-02-28T20:27:21.931Z,77.10
2019-02-28T20:29:55.124Z,77.40
2019-02-28T20:32:25.119Z,77.80
2019-02-28T20:34:55.394Z,78.00
2019-02-28T20:37:25.866Z,78.30
2019-02-28T20:39:56.078Z,79.00
2019-02-28T20:42:26.517Z,79.50
2019-02-28T20:44:56.814Z,79.80
2019-02-28T20:47:28.248Z,80.00
2019-02-28T20:49:59.844Z,80.10
2019-02-28T20:52:30.133Z,80.20
2019-02-28T20:55:00.426Z,80.40
2019-02-28T20:57:30.733Z,80.40
2019-02-28T21:00:01.092Z,80.70
2019-02-28T21:02:31.995Z,81.00
2019-02-28T21:05:02.372Z,81.30
2019-02-28T21:07:32.986Z,81.60
2019-02-28T21:10:05.094Z,81.90
2019-02-28T21:12:37.063Z,82.30
2019-02-28T21:15:07.907Z,82.60
2019-02-28T21:17:38.378Z,82.90
2019-02-28T21:20:10.033Z,83.00
2019-02-28T21:22:41.587Z,83.60
2019-02-28T21:25:12.291Z,83.70
2019-02-28T21:27:42.624Z,83.80
2019-02-28T21:30:16.522Z,84.20
2019-02-28T21:32:46.884Z,84.40
2019-02-28T21:35:17.787Z,84.70
2019-02-28T21:37:48.688Z,84.90
2019-02-28T21:40:19.318Z,85.80
2019-02-28T21:42:49.836Z,85.90
2019-02-28T21:45:20.219Z,86.30
2019-02-28T21:47:50.647Z,87.00
2019-02-28T21:50:21.145Z,87.50
2019-02-28T21:52:51.785Z,88.10
2019-02-28T21:55:23.199Z,88.70
2019-02-28T21:57:54.207Z,88.70
2019-02-28T22:00:24.865Z,89.10
2019-02-28T22:02:55.200Z,89.40
2019-02-28T22:05:25.531Z,89.80
2019-02-28T22:07:55.662Z,90.10
2019-02-28T22:10:25.912Z,90.30
2019-02-28T22:12:56.212Z,90.60
2019-02-28T22:15:26.489Z,91.40
2019-02-28T22:17:56.831Z,91.90
2019-02-28T22:20:27.654Z,92.20
2019-02-28T22:22:57.957Z,92.20
2019-02-28T22:25:28.211Z,92.60
2019-02-28T22:27:59.527Z,92.80
2019-02-28T22:30:49.947Z,93.40
2019-02-28T22:33:33.270Z,93.50
2019-02-28T22:36:04.938Z,94.30
2019-02-28T22:38:34.999Z,94.40
2019-02-28T22:41:05.334Z,95.00
2019-02-28T22:43:35.658Z,95.10
2019-02-28T22:46:05.979Z,95.40
2019-02-28T22:48:36.412Z,95.80
2019-02-28T22:51:06.665Z,95.90
2019-02-28T22:53:36.881Z,96.20
2019-02-28T22:56:07.092Z,96.50
2019-02-28T22:58:37.231Z,96.40
2019-02-28T23:01:12.147Z,96.60
2019-02-28T23:03:42.608Z,96.90
2019-02-28T23:06:12.794Z,97.10
2019-02-28T23:08:43.195Z,97.10
2019-02-28T23:11:13.815Z,97.30
2019-02-28T23:13:43.946Z,97.50
2019-02-28T23:16:14.172Z,97.50
2019-02-28T23:18:44.427Z,97.60
2019-02-28T23:21:14.616Z,97.70
2019-02-28T23:23:44.705Z,97.80
2019-02-28T23:26:15.599Z,97.90
2019-02-28T23:29:06.848Z,98.10
2019-02-28T23:32:15.327Z,98.10
2019-02-28T23:34:48.931Z,98.30
2019-02-28T23:37:19.047Z,98.40
2019-02-28T23:39:49.132Z,98.40
2019-02-28T23:42:19.259Z,98.40
2019-02-28T23:44:49.577Z,98.60
2019-02-28T23:47:19.755Z,98.60
2019-02-28T23:49:50.919Z,98.70
2019-02-28T23:52:20.985Z,98.80
2019-02-28T23:54:51.007Z,98.80
2019-02-28T23:57:21.070Z,99.00
2019-02-28T23:59:51.022Z,99.20
